createdAt,value
2017-02-16T00:01:25.465Z,0
2017-02-16T00:02:07.088Z,0
2017-02-16T00:04:27.646Z,0
2017-02-16T00:05:09.110Z,0
2017-02-16T00:05:50.657Z,0
2017-02-16T00:06:32.171Z,0
2017-02-16T00:07:13.643Z,0
2017-02-16T00:09:13.523Z,0
2017-02-16T00:09:54.988Z,0
2017-02-16T00:10:36.550Z,0
2017-02-16T00:11:18.031Z,0
2017-02-16T00:11:59.636Z,0
2017-02-16T00:12:41.287Z,0
2017-02-16T00:13:22.852Z,0
2017-02-16T00:14:04.248Z,0
2017-02-16T00:14:45.793Z,0
2017-02-16T00:15:27.458Z,0
2017-02-16T00:16:09.139Z,0
2017-02-16T00:16:50.744Z,0
2017-02-16T00:17:32.259Z,0
2017-02-16T00:18:13.814Z,0
2017-02-16T00:20:34.389Z,0
2017-02-16T00:21:15.870Z,0
2017-02-16T00:21:57.468Z,0
2017-02-16T00:22:38.955Z,0
2017-02-16T00:23:20.498Z,0
2017-02-16T00:27:40.688Z,0
2017-02-16T00:28:22.358Z,0
2017-02-16T00:29:03.806Z,0
2017-02-16T00:29:45.361Z,0
2017-02-16T00:30:26.911Z,0
2017-02-16T00:31:08.503Z,0
2017-02-16T00:31:50.092Z,0
2017-02-16T00:32:31.451Z,0
2017-02-16T00:33:13.000Z,0
2017-02-16T00:35:28.184Z,0
2017-02-16T00:38:04.253Z,0
2017-02-16T00:38:45.678Z,0
2017-02-16T00:39:27.257Z,0
2017-02-16T00:40:08.719Z,0
2017-02-16T00:40:50.364Z,0
2017-02-16T00:41:31.715Z,0
2017-02-16T00:44:07.976Z,0
2017-02-16T00:44:49.572Z,0
2017-02-16T00:45:31.189Z,0
2017-02-16T00:46:12.846Z,0
2017-02-16T00:46:54.430Z,0
2017-02-16T00:47:35.993Z,0
2017-02-16T00:48:17.665Z,0
2017-02-16T00:48:59.126Z,0
2017-02-16T00:49:40.688Z,0
2017-02-16T00:50:22.043Z,0
2017-02-16T00:51:03.287Z,0
2017-02-16T00:53:24.000Z,0
2017-02-16T00:54:05.501Z,0
2017-02-16T00:54:47.198Z,0
2017-02-16T00:55:28.849Z,0
2017-02-16T00:57:49.340Z,0
2017-02-16T00:58:30.670Z,0
2017-02-16T00:59:12.015Z,0
2017-02-16T00:59:53.512Z,0
2017-02-16T01:00:34.252Z,0
2017-02-16T01:01:15.621Z,0
2017-02-16T01:01:57.304Z,0
2017-02-16T01:02:38.700Z,0
2017-02-16T01:03:20.278Z,0
2017-02-16T01:05:20.074Z,0
2017-02-16T01:06:01.374Z,0
2017-02-16T01:06:43.022Z,0
2017-02-16T01:07:24.227Z,0
2017-02-16T01:08:05.891Z,0
2017-02-16T01:08:47.650Z,0
2017-02-16T01:11:02.949Z,0
2017-02-16T01:11:44.655Z,0
2017-02-16T01:12:26.316Z,0
2017-02-16T01:13:07.870Z,0
2017-02-16T01:13:49.489Z,0
2017-02-16T01:16:25.621Z,0
2017-02-16T01:17:07.120Z,0
2017-02-16T01:17:48.773Z,0
2017-02-16T01:18:30.236Z,0
2017-02-16T01:20:30.134Z,0
2017-02-16T01:21:11.554Z,0
2017-02-16T01:21:52.816Z,0
2017-02-16T01:22:34.458Z,0
2017-02-16T01:23:15.961Z,0
2017-02-16T01:23:57.596Z,0
2017-02-16T01:24:39.307Z,0
2017-02-16T01:25:20.810Z,0
2017-02-16T01:26:02.483Z,0
2017-02-16T01:26:43.889Z,0
2017-02-16T01:27:25.374Z,0
2017-02-16T01:28:06.866Z,0
2017-02-16T01:28:48.349Z,0
2017-02-16T01:31:24.418Z,0
2017-02-16T01:32:05.980Z,0
2017-02-16T01:32:47.635Z,0
2017-02-16T01:33:29.191Z,0
2017-02-16T01:34:11.000Z,0
2017-02-16T01:34:52.572Z,0
2017-02-16T01:35:33.972Z,0
2017-02-16T01:36:15.393Z,0
2017-02-16T01:36:57.044Z,0
2017-02-16T01:37:38.742Z,0
2017-02-16T01:38:20.326Z,0
2017-02-16T01:39:01.889Z,0
2017-02-16T01:39:43.642Z,0
2017-02-16T01:40:25.166Z,0
2017-02-16T01:41:06.601Z,0
2017-02-16T01:41:48.196Z,0
2017-02-16T01:42:29.736Z,0
2017-02-16T01:43:11.216Z,0
2017-02-16T01:43:52.760Z,0
2017-02-16T01:45:52.678Z,0
2017-02-16T01:46:34.170Z,0
2017-02-16T01:47:15.271Z,0
2017-02-16T01:47:56.700Z,0
2017-02-16T01:48:38.142Z,0
2017-02-16T01:50:53.443Z,0
2017-02-16T01:51:34.869Z,0
2017-02-16T01:52:16.317Z,0
2017-02-16T01:52:57.741Z,0
2017-02-16T01:55:34.047Z,0
2017-02-16T01:56:15.660Z,0
2017-02-16T01:56:57.251Z,0
2017-02-16T01:57:38.744Z,0
2017-02-16T01:58:20.379Z,0
2017-02-16T01:59:01.871Z,0
2017-02-16T01:59:43.401Z,0
2017-02-16T02:00:24.214Z,0
2017-02-16T02:01:04.745Z,0
2017-02-16T02:01:45.284Z,0
2017-02-16T02:02:25.814Z,0
2017-02-16T02:03:06.349Z,0
2017-02-16T02:03:46.872Z,0
2017-02-16T02:04:27.398Z,0
2017-02-16T02:05:07.935Z,0
2017-02-16T02:05:48.468Z,0
2017-02-16T02:06:29.000Z,0
2017-02-16T02:07:09.531Z,0
2017-02-16T02:07:50.056Z,0
2017-02-16T02:08:30.587Z,0
2017-02-16T02:09:11.118Z,0
2017-02-16T02:09:51.653Z,0
2017-02-16T02:10:32.185Z,0
2017-02-16T02:11:12.748Z,0
2017-02-16T02:11:53.252Z,0
2017-02-16T02:12:33.790Z,0
2017-02-16T02:13:14.323Z,0
2017-02-16T02:13:54.859Z,0
2017-02-16T02:14:35.396Z,0
2017-02-16T02:15:15.936Z,0
2017-02-16T02:15:56.468Z,0
2017-02-16T02:16:37.001Z,0
2017-02-16T02:17:17.535Z,0
2017-02-16T02:17:58.070Z,0
2017-02-16T02:18:38.606Z,0
2017-02-16T02:19:19.142Z,0
2017-02-16T02:19:59.701Z,0
2017-02-16T02:20:40.211Z,0
2017-02-16T02:21:20.750Z,0
2017-02-16T02:22:01.358Z,0
2017-02-16T02:22:41.863Z,0
2017-02-16T02:23:22.401Z,0
2017-02-16T02:24:02.942Z,0
2017-02-16T02:24:43.467Z,0
2017-02-16T02:25:23.998Z,0
2017-02-16T02:26:04.526Z,0
2017-02-16T02:26:45.058Z,0
2017-02-16T02:27:25.593Z,0
2017-02-16T02:28:06.128Z,0
2017-02-16T02:28:46.665Z,0
2017-02-16T02:29:27.198Z,0
2017-02-16T02:30:07.730Z,0
2017-02-16T02:30:48.264Z,0
2017-02-16T02:31:28.806Z,0
2017-02-16T02:32:09.339Z,0
2017-02-16T02:32:49.872Z,0
2017-02-16T02:33:30.393Z,0
2017-02-16T02:34:10.916Z,0
2017-02-16T02:34:51.450Z,0
2017-02-16T02:35:31.982Z,0
2017-02-16T02:36:12.565Z,0
2017-02-16T02:36:53.102Z,0
2017-02-16T02:37:33.636Z,0
2017-02-16T02:38:14.175Z,0
2017-02-16T02:38:54.707Z,0
2017-02-16T02:39:35.244Z,0
2017-02-16T02:40:15.774Z,0
2017-02-16T02:40:56.311Z,0
2017-02-16T02:41:36.844Z,0
2017-02-16T02:42:17.368Z,0
2017-02-16T02:42:57.898Z,0
2017-02-16T02:43:38.427Z,0
2017-02-16T02:44:18.964Z,0
2017-02-16T02:44:59.497Z,0
2017-02-16T02:45:40.029Z,0
2017-02-16T02:46:20.561Z,0
2017-02-16T02:47:01.093Z,0
2017-02-16T02:47:41.625Z,0
2017-02-16T02:48:22.158Z,0
2017-02-16T02:49:02.695Z,0
2017-02-16T02:49:43.232Z,0
2017-02-16T02:50:23.763Z,0
2017-02-16T02:51:04.297Z,0
2017-02-16T02:51:44.827Z,0
2017-02-16T02:52:25.364Z,0
2017-02-16T02:53:05.896Z,0
2017-02-16T02:53:46.433Z,0
2017-02-16T02:54:26.959Z,0
2017-02-16T02:55:07.494Z,0
2017-02-16T02:55:48.073Z,0
2017-02-16T02:56:28.602Z,0
2017-02-16T02:57:09.134Z,0
2017-02-16T02:57:49.665Z,0
2017-02-16T02:58:30.205Z,0
2017-02-16T02:59:10.737Z,0
2017-02-16T02:59:51.269Z,0
2017-02-16T03:00:31.789Z,0
2017-02-16T03:01:12.327Z,0
2017-02-16T03:01:52.852Z,0
2017-02-16T03:02:33.387Z,0
2017-02-16T03:03:13.920Z,0
2017-02-16T03:03:54.453Z,0
2017-02-16T03:04:34.988Z,0
2017-02-16T03:05:15.520Z,0
2017-02-16T03:05:56.057Z,0
2017-02-16T03:06:36.590Z,0
2017-02-16T03:07:17.125Z,0
2017-02-16T03:07:57.653Z,0
2017-02-16T03:08:38.184Z,0
2017-02-16T03:09:18.718Z,0
2017-02-16T03:09:59.291Z,0
2017-02-16T03:10:39.820Z,0
2017-02-16T03:11:20.349Z,0
2017-02-16T03:12:00.890Z,0
2017-02-16T03:12:41.420Z,0
2017-02-16T03:13:21.956Z,0
2017-02-16T03:14:02.494Z,0
2017-02-16T03:14:43.026Z,0
2017-02-16T03:15:23.557Z,0
2017-02-16T03:16:04.091Z,0
2017-02-16T03:16:44.620Z,0
2017-02-16T03:17:25.149Z,0
2017-02-16T03:18:05.680Z,0
2017-02-16T03:18:46.214Z,0
2017-02-16T03:19:26.749Z,0
2017-02-16T03:20:07.276Z,0
2017-02-16T03:20:47.813Z,0
2017-02-16T03:21:28.344Z,0
2017-02-16T03:22:08.874Z,0
2017-02-16T03:22:49.432Z,0
2017-02-16T03:23:29.935Z,0
2017-02-16T03:24:10.457Z,0
2017-02-16T03:24:50.991Z,0
2017-02-16T03:25:31.527Z,0
2017-02-16T03:26:12.055Z,0
2017-02-16T03:26:52.580Z,0
2017-02-16T03:27:33.102Z,0
2017-02-16T03:28:13.635Z,0
2017-02-16T03:28:54.170Z,0
2017-02-16T03:29:34.706Z,0
2017-02-16T03:30:15.232Z,0
2017-02-16T03:30:55.764Z,0
2017-02-16T03:31:36.297Z,0
2017-02-16T03:32:16.829Z,0
2017-02-16T03:32:57.362Z,0
2017-02-16T03:33:37.896Z,0
2017-02-16T03:34:18.424Z,0
2017-02-16T03:34:58.958Z,0
2017-02-16T03:35:39.499Z,0
2017-02-16T03:36:20.033Z,0
2017-02-16T03:37:00.566Z,0
2017-02-16T03:37:41.105Z,0
2017-02-16T03:38:21.635Z,0
2017-02-16T03:39:02.166Z,0
2017-02-16T03:39:42.700Z,0
2017-02-16T03:40:23.232Z,0
2017-02-16T03:41:03.767Z,0
2017-02-16T03:41:44.298Z,0
2017-02-16T03:42:24.825Z,0
2017-02-16T03:43:05.363Z,0
2017-02-16T03:43:45.927Z,0
2017-02-16T03:44:26.467Z,0
2017-02-16T03:45:07.006Z,0
2017-02-16T03:45:47.537Z,0
2017-02-16T03:46:28.068Z,0
2017-02-16T03:47:08.600Z,0
2017-02-16T03:47:49.130Z,0
2017-02-16T03:48:29.664Z,0
2017-02-16T03:49:10.208Z,0
2017-02-16T03:49:50.745Z,0
2017-02-16T03:50:31.276Z,0
2017-02-16T03:51:11.809Z,0
2017-02-16T03:51:52.343Z,0
2017-02-16T03:52:32.874Z,0
2017-02-16T03:53:13.410Z,0
2017-02-16T03:53:53.948Z,0
2017-02-16T03:54:34.481Z,0
2017-02-16T03:55:15.026Z,0
2017-02-16T03:55:55.556Z,0
2017-02-16T03:56:36.094Z,0
2017-02-16T03:57:16.626Z,0
2017-02-16T03:57:57.175Z,0
2017-02-16T03:58:37.714Z,0
2017-02-16T03:59:18.250Z,0
2017-02-16T03:59:58.782Z,0
2017-02-16T04:00:39.309Z,0
2017-02-16T04:01:19.843Z,0
2017-02-16T04:02:00.377Z,0
2017-02-16T04:02:40.916Z,0
2017-02-16T04:03:21.446Z,0
2017-02-16T04:04:01.980Z,0
2017-02-16T04:04:42.517Z,0
2017-02-16T04:05:23.041Z,0
2017-02-16T04:06:03.572Z,0
2017-02-16T04:06:44.104Z,0
2017-02-16T04:07:24.631Z,0
2017-02-16T04:08:05.164Z,0
2017-02-16T04:08:45.694Z,0
2017-02-16T04:09:26.231Z,0
2017-02-16T04:10:06.765Z,0
2017-02-16T04:10:47.297Z,0
2017-02-16T04:11:27.831Z,0
2017-02-16T04:12:08.361Z,0
2017-02-16T04:12:48.886Z,0
2017-02-16T04:13:29.425Z,0
2017-02-16T04:14:09.956Z,0
2017-02-16T04:14:50.490Z,0
2017-02-16T04:15:31.021Z,0
2017-02-16T04:16:11.556Z,0
2017-02-16T04:16:52.090Z,0
2017-02-16T04:17:32.630Z,0
2017-02-16T04:18:13.162Z,0
2017-02-16T04:18:53.693Z,0
2017-02-16T04:19:34.224Z,0
2017-02-16T04:20:14.761Z,0
2017-02-16T04:20:55.293Z,0
2017-02-16T04:21:35.833Z,0
2017-02-16T04:22:16.367Z,0
2017-02-16T04:22:56.905Z,0
2017-02-16T04:23:37.445Z,0
2017-02-16T04:24:17.975Z,0
2017-02-16T04:24:58.505Z,0
2017-02-16T04:25:39.037Z,0
2017-02-16T04:26:19.575Z,0
2017-02-16T04:27:00.109Z,0
2017-02-16T04:27:40.643Z,0
2017-02-16T04:28:21.165Z,0
2017-02-16T04:29:01.695Z,0
2017-02-16T04:29:42.234Z,0
2017-02-16T04:30:22.769Z,0
2017-02-16T04:31:03.301Z,0
2017-02-16T04:31:43.824Z,0
2017-02-16T04:32:24.349Z,0
2017-02-16T04:33:04.886Z,0
2017-02-16T04:33:45.419Z,0
2017-02-16T04:34:25.950Z,0
2017-02-16T04:35:06.486Z,0
2017-02-16T04:35:47.013Z,0
2017-02-16T04:36:27.540Z,0
2017-02-16T04:37:08.074Z,0
2017-02-16T04:37:48.607Z,0
2017-02-16T04:38:29.143Z,0
2017-02-16T04:39:09.675Z,0
2017-02-16T04:39:50.209Z,0
2017-02-16T04:40:30.741Z,0
2017-02-16T04:41:11.304Z,0
2017-02-16T04:41:51.855Z,0
2017-02-16T04:42:32.393Z,0
2017-02-16T04:43:12.936Z,0
2017-02-16T04:43:53.471Z,0
2017-02-16T04:44:34.013Z,0
2017-02-16T04:45:14.547Z,0
2017-02-16T04:45:55.085Z,0
2017-02-16T04:46:35.611Z,0
2017-02-16T04:47:16.148Z,0
2017-02-16T04:47:56.681Z,0
2017-02-16T04:48:37.216Z,0
2017-02-16T04:49:17.753Z,0
2017-02-16T04:49:58.283Z,0
2017-02-16T04:50:38.816Z,0
2017-02-16T04:51:19.350Z,0
2017-02-16T04:51:59.879Z,0
2017-02-16T04:52:40.417Z,0
2017-02-16T04:53:20.940Z,0
2017-02-16T04:54:01.470Z,0
2017-02-16T04:54:42.003Z,0
2017-02-16T04:55:22.539Z,0
2017-02-16T04:56:03.066Z,0
2017-02-16T04:56:43.598Z,0
2017-02-16T04:57:24.130Z,0
2017-02-16T04:58:04.659Z,0
2017-02-16T04:58:45.191Z,0
2017-02-16T04:59:25.723Z,0
2017-02-16T05:00:06.256Z,0
2017-02-16T05:00:46.793Z,0
2017-02-16T05:01:27.327Z,0
2017-02-16T05:02:07.864Z,0
2017-02-16T05:02:48.400Z,0
2017-02-16T05:03:28.940Z,0
2017-02-16T05:04:09.476Z,0
2017-02-16T05:04:50.006Z,0
2017-02-16T05:05:30.536Z,0
2017-02-16T05:06:11.072Z,0
2017-02-16T05:06:51.611Z,0
2017-02-16T05:07:32.150Z,0
2017-02-16T05:08:12.711Z,0
2017-02-16T05:08:53.224Z,0
2017-02-16T05:09:33.780Z,0
2017-02-16T05:10:14.315Z,0
2017-02-16T05:10:54.842Z,0
2017-02-16T05:11:35.372Z,0
2017-02-16T05:12:15.896Z,0
2017-02-16T05:12:56.454Z,0
2017-02-16T05:13:36.983Z,0
2017-02-16T05:14:17.515Z,0
2017-02-16T05:14:58.053Z,0
2017-02-16T05:15:38.632Z,0
2017-02-16T05:16:19.171Z,0
2017-02-16T05:16:59.704Z,0
2017-02-16T05:17:40.282Z,0
2017-02-16T05:18:20.819Z,0
2017-02-16T05:19:01.346Z,0
2017-02-16T05:19:41.880Z,0
2017-02-16T05:20:22.416Z,0
2017-02-16T05:21:02.941Z,0
2017-02-16T05:21:43.490Z,0
2017-02-16T05:22:24.007Z,0
2017-02-16T05:23:04.578Z,0
2017-02-16T05:23:45.077Z,0
2017-02-16T05:24:25.617Z,0
2017-02-16T05:25:06.154Z,0
2017-02-16T05:25:46.727Z,0
2017-02-16T05:26:27.297Z,0
2017-02-16T05:27:07.832Z,0
2017-02-16T05:27:48.351Z,0
2017-02-16T05:28:28.898Z,0
2017-02-16T05:29:09.417Z,0
2017-02-16T05:29:49.950Z,0
2017-02-16T05:30:30.483Z,0
2017-02-16T05:31:11.015Z,0
2017-02-16T05:31:51.551Z,0
2017-02-16T05:32:32.612Z,0
2017-02-16T05:33:13.143Z,0
2017-02-16T05:33:53.693Z,0
2017-02-16T05:34:34.206Z,0
2017-02-16T05:35:14.741Z,0
2017-02-16T05:35:55.274Z,0
2017-02-16T05:36:35.826Z,0
2017-02-16T05:37:16.366Z,0
2017-02-16T05:37:56.900Z,0
2017-02-16T05:38:37.435Z,0
2017-02-16T05:39:17.968Z,0
2017-02-16T05:39:58.498Z,0
2017-02-16T05:40:39.038Z,0
2017-02-16T05:41:19.572Z,0
2017-02-16T05:42:00.107Z,0
2017-02-16T05:42:40.633Z,0
2017-02-16T05:43:21.162Z,0
2017-02-16T05:44:01.680Z,0
2017-02-16T05:44:42.230Z,0
2017-02-16T05:45:22.761Z,0
2017-02-16T05:46:03.290Z,0
2017-02-16T05:46:43.824Z,0
2017-02-16T05:47:24.333Z,0
2017-02-16T05:48:04.864Z,0
2017-02-16T05:48:45.388Z,0
2017-02-16T05:49:25.917Z,0
2017-02-16T05:50:06.459Z,0
2017-02-16T05:50:46.987Z,0
2017-02-16T05:51:27.514Z,0
2017-02-16T05:52:08.054Z,0
2017-02-16T05:52:48.588Z,0
2017-02-16T05:53:29.116Z,0
2017-02-16T05:54:09.661Z,0
2017-02-16T05:54:50.221Z,0
2017-02-16T05:55:30.729Z,0
2017-02-16T05:56:11.258Z,0
2017-02-16T05:56:51.787Z,0
2017-02-16T05:57:32.321Z,0
2017-02-16T05:58:12.866Z,0
2017-02-16T05:58:53.401Z,0
2017-02-16T05:59:33.939Z,0
2017-02-16T06:00:14.481Z,0
2017-02-16T06:00:55.010Z,0
2017-02-16T06:01:35.541Z,0
2017-02-16T06:02:16.080Z,0
2017-02-16T06:02:56.624Z,0
2017-02-16T06:03:37.157Z,0
2017-02-16T06:04:17.695Z,0
2017-02-16T06:04:58.246Z,0
2017-02-16T06:05:38.772Z,0
2017-02-16T06:06:19.294Z,0
2017-02-16T06:06:59.832Z,0
2017-02-16T06:07:40.374Z,0
2017-02-16T06:08:20.901Z,0
2017-02-16T06:09:01.436Z,0
2017-02-16T06:09:41.969Z,0
2017-02-16T06:10:22.500Z,0
2017-02-16T06:11:03.034Z,0
2017-02-16T06:11:43.580Z,0
2017-02-16T06:12:24.114Z,0
2017-02-16T06:13:04.639Z,0
2017-02-16T06:13:45.170Z,0
2017-02-16T06:14:25.706Z,4
2017-02-16T06:15:06.236Z,4
2017-02-16T06:15:46.779Z,4
2017-02-16T06:16:27.315Z,0
2017-02-16T06:17:07.848Z,0
2017-02-16T06:17:48.371Z,0
2017-02-16T06:18:28.897Z,4
2017-02-16T06:19:09.434Z,4
2017-02-16T06:19:49.975Z,4
2017-02-16T06:20:30.512Z,4
2017-02-16T06:21:11.040Z,0
2017-02-16T06:21:51.556Z,4
2017-02-16T06:22:32.095Z,4
2017-02-16T06:23:12.635Z,4
2017-02-16T06:23:53.170Z,4
2017-02-16T06:24:33.700Z,4
2017-02-16T06:25:14.230Z,8
2017-02-16T06:25:54.767Z,4
2017-02-16T06:26:35.296Z,8
2017-02-16T06:27:15.837Z,4
2017-02-16T06:27:56.371Z,8
2017-02-16T06:28:36.907Z,12
2017-02-16T06:29:17.451Z,12
2017-02-16T06:29:57.984Z,16
2017-02-16T06:30:38.518Z,16
2017-02-16T06:31:19.050Z,16
2017-02-16T06:31:59.591Z,16
2017-02-16T06:32:40.118Z,16
2017-02-16T06:33:20.742Z,24
2017-02-16T06:34:01.266Z,24
2017-02-16T06:34:41.793Z,28
2017-02-16T06:35:22.330Z,32
2017-02-16T06:36:02.871Z,36
2017-02-16T06:36:43.409Z,40
2017-02-16T06:37:23.945Z,44
2017-02-16T06:38:04.492Z,48
2017-02-16T06:38:45.024Z,52
2017-02-16T06:39:25.557Z,60
2017-02-16T06:40:06.124Z,68
2017-02-16T06:40:46.660Z,72
2017-02-16T06:41:27.201Z,76
2017-02-16T06:42:07.762Z,80
2017-02-16T06:42:48.303Z,88
2017-02-16T06:43:28.839Z,92
2017-02-16T06:44:09.368Z,92
2017-02-16T06:44:49.902Z,104
2017-02-16T06:45:30.439Z,108
2017-02-16T06:46:10.983Z,112
2017-02-16T06:46:51.521Z,124
2017-02-16T06:47:32.056Z,132
2017-02-16T06:48:12.589Z,140
2017-02-16T06:48:53.123Z,152
2017-02-16T06:49:33.658Z,164
2017-02-16T06:50:14.192Z,172
2017-02-16T06:50:54.724Z,184
2017-02-16T06:51:35.250Z,192
2017-02-16T06:52:15.785Z,196
2017-02-16T06:52:56.301Z,204
2017-02-16T06:53:36.843Z,212
2017-02-16T06:54:17.378Z,220
2017-02-16T06:54:57.917Z,228
2017-02-16T06:55:38.441Z,232
2017-02-16T06:56:18.976Z,248
2017-02-16T06:56:59.504Z,256
2017-02-16T06:57:40.047Z,264
2017-02-16T06:58:20.563Z,268
2017-02-16T06:59:01.103Z,268
2017-02-16T06:59:41.649Z,260
2017-02-16T07:00:22.192Z,260
2017-02-16T07:01:02.756Z,240
2017-02-16T07:01:43.252Z,220
2017-02-16T07:02:23.774Z,204
2017-02-16T07:03:04.316Z,200
2017-02-16T07:03:44.850Z,196
2017-02-16T07:04:25.381Z,192
2017-02-16T07:05:05.915Z,188
2017-02-16T07:05:46.449Z,192
2017-02-16T07:06:26.990Z,192
2017-02-16T07:07:07.527Z,200
2017-02-16T07:07:48.062Z,208
2017-02-16T07:08:28.600Z,216
2017-02-16T07:09:09.177Z,212
2017-02-16T07:09:49.687Z,204
2017-02-16T07:10:30.223Z,204
2017-02-16T07:11:10.757Z,212
2017-02-16T07:11:51.289Z,224
2017-02-16T07:12:31.829Z,252
2017-02-16T07:13:12.358Z,280
2017-02-16T07:13:52.890Z,304
2017-02-16T07:14:33.483Z,360
2017-02-16T07:15:14.023Z,420
2017-02-16T07:15:54.560Z,432
2017-02-16T07:16:35.094Z,480
2017-02-16T07:17:15.630Z,532
2017-02-16T07:17:56.163Z,484
2017-02-16T07:18:36.694Z,384
2017-02-16T07:19:17.231Z,332
2017-02-16T07:19:57.764Z,296
2017-02-16T07:20:38.296Z,288
2017-02-16T07:21:18.844Z,280
2017-02-16T07:21:59.376Z,276
2017-02-16T07:22:39.909Z,284
2017-02-16T07:23:20.444Z,300
2017-02-16T07:24:00.989Z,340
2017-02-16T07:24:41.521Z,384
2017-02-16T07:25:22.050Z,416
2017-02-16T07:26:02.582Z,448
2017-02-16T07:26:43.123Z,428
2017-02-16T07:27:23.658Z,384
2017-02-16T07:28:04.192Z,368
2017-02-16T07:28:44.743Z,380
2017-02-16T07:29:25.295Z,392
2017-02-16T07:30:05.840Z,444
2017-02-16T07:30:46.375Z,496
2017-02-16T07:31:26.925Z,544
2017-02-16T07:32:07.496Z,548
2017-02-16T07:32:48.019Z,528
2017-02-16T07:33:28.571Z,512
2017-02-16T07:34:09.109Z,456
2017-02-16T07:34:49.648Z,392
2017-02-16T07:35:30.175Z,344
2017-02-16T07:36:10.727Z,312
2017-02-16T07:36:51.258Z,292
2017-02-16T07:37:31.795Z,308
2017-02-16T07:38:12.317Z,316
2017-02-16T07:38:52.851Z,328
2017-02-16T07:39:33.386Z,340
2017-02-16T07:40:13.921Z,344
2017-02-16T07:40:54.458Z,344
2017-02-16T07:41:34.996Z,352
2017-02-16T07:42:15.522Z,396
2017-02-16T07:42:56.064Z,408
2017-02-16T07:43:36.595Z,400
2017-02-16T07:44:17.130Z,396
2017-02-16T07:44:57.663Z,388
2017-02-16T07:45:38.209Z,372
2017-02-16T07:46:18.743Z,368
2017-02-16T07:46:59.295Z,372
2017-02-16T07:47:39.796Z,432
2017-02-16T07:48:20.326Z,512
2017-02-16T07:49:00.856Z,564
2017-02-16T07:49:41.391Z,544
2017-02-16T07:50:21.930Z,504
2017-02-16T07:51:02.469Z,472
2017-02-16T07:51:43.010Z,456
2017-02-16T07:52:23.540Z,500
2017-02-16T07:53:04.079Z,536
2017-02-16T07:53:44.612Z,532
2017-02-16T07:54:25.142Z,504
2017-02-16T07:55:05.673Z,492
2017-02-16T07:55:46.205Z,468
2017-02-16T07:56:26.737Z,428
2017-02-16T07:57:07.272Z,408
2017-02-16T07:57:47.810Z,436
2017-02-16T07:58:28.345Z,492
2017-02-16T07:59:08.876Z,520
2017-02-16T07:59:49.406Z,556
2017-02-16T08:00:29.927Z,536
2017-02-16T08:01:10.462Z,496
2017-02-16T08:01:50.996Z,476
2017-02-16T08:02:31.532Z,468
2017-02-16T08:03:12.069Z,528
2017-02-16T08:03:52.597Z,544
2017-02-16T08:04:33.131Z,604
2017-02-16T08:05:13.665Z,696
2017-02-16T08:05:54.198Z,808
2017-02-16T08:06:34.730Z,808
2017-02-16T08:07:15.261Z,740
2017-02-16T08:07:55.861Z,664
2017-02-16T08:08:36.391Z,612
2017-02-16T08:09:16.934Z,564
2017-02-16T08:09:57.473Z,496
2017-02-16T08:10:38.003Z,432
2017-02-16T08:11:18.527Z,396
2017-02-16T08:11:59.053Z,364
2017-02-16T08:12:39.587Z,340
2017-02-16T08:13:20.117Z,320
2017-02-16T08:14:00.650Z,312
2017-02-16T08:14:41.183Z,328
2017-02-16T08:15:21.723Z,368
2017-02-16T08:16:02.258Z,412
2017-02-16T08:16:42.789Z,448
2017-02-16T08:17:23.320Z,484
2017-02-16T08:18:03.847Z,520
2017-02-16T08:18:44.380Z,544
2017-02-16T08:19:24.914Z,560
2017-02-16T08:20:05.441Z,576
2017-02-16T08:20:45.972Z,604
2017-02-16T08:21:26.509Z,592
2017-02-16T08:22:07.038Z,576
2017-02-16T08:22:47.579Z,564
2017-02-16T08:23:28.110Z,524
2017-02-16T08:24:08.642Z,488
2017-02-16T08:24:49.181Z,464
2017-02-16T08:25:29.715Z,496
2017-02-16T08:26:10.243Z,444
2017-02-16T08:26:50.779Z,408
2017-02-16T08:27:31.313Z,404
2017-02-16T08:28:11.846Z,408
2017-02-16T08:28:52.379Z,416
2017-02-16T08:29:32.911Z,440
2017-02-16T08:30:13.444Z,460
2017-02-16T08:30:53.982Z,504
2017-02-16T08:31:34.515Z,520
2017-02-16T08:32:15.048Z,540
2017-02-16T08:32:55.581Z,536
2017-02-16T08:33:36.114Z,524
2017-02-16T08:34:16.646Z,532
2017-02-16T08:34:57.185Z,544
2017-02-16T08:35:37.717Z,528
2017-02-16T08:36:18.252Z,524
2017-02-16T08:36:58.780Z,500
2017-02-16T08:37:39.309Z,460
2017-02-16T08:38:19.843Z,468
2017-02-16T08:39:00.371Z,504
2017-02-16T08:39:40.913Z,560
2017-02-16T08:40:21.440Z,632
2017-02-16T08:41:01.986Z,672
2017-02-16T08:41:42.519Z,728
2017-02-16T08:42:23.047Z,820
2017-02-16T08:43:03.586Z,924
2017-02-16T08:43:44.116Z,1028
2017-02-16T08:44:24.652Z,1184
2017-02-16T08:45:05.189Z,1316
2017-02-16T08:45:45.721Z,1392
2017-02-16T08:46:26.254Z,1476
2017-02-16T08:47:06.794Z,1536
2017-02-16T08:47:47.331Z,1552
2017-02-16T08:48:27.860Z,1496
2017-02-16T08:49:08.395Z,1524
2017-02-16T08:49:48.930Z,1680
2017-02-16T08:50:29.454Z,1940
2017-02-16T08:51:09.998Z,2140
2017-02-16T08:51:50.531Z,2128
2017-02-16T08:52:31.065Z,1920
2017-02-16T08:53:11.607Z,1664
2017-02-16T08:53:52.145Z,1588
2017-02-16T08:54:32.679Z,1568
2017-02-16T08:55:13.216Z,1624
2017-02-16T08:55:53.751Z,1712
2017-02-16T08:56:34.292Z,1868
2017-02-16T08:57:14.816Z,1896
2017-02-16T08:57:55.349Z,1704
2017-02-16T08:58:35.884Z,1512
2017-02-16T08:59:16.419Z,1356
2017-02-16T08:59:56.952Z,1276
2017-02-16T09:00:37.487Z,1220
2017-02-16T09:01:18.021Z,1188
2017-02-16T09:01:58.600Z,1148
2017-02-16T09:02:39.087Z,1040
2017-02-16T09:03:19.618Z,984
2017-02-16T09:04:00.154Z,936
2017-02-16T09:04:40.689Z,868
2017-02-16T09:05:21.219Z,816
2017-02-16T09:06:01.751Z,748
2017-02-16T09:06:42.282Z,772
2017-02-16T09:07:22.816Z,884
2017-02-16T09:08:03.354Z,1180
2017-02-16T09:08:43.895Z,1508
2017-02-16T09:09:24.424Z,1716
2017-02-16T09:10:04.948Z,1856
2017-02-16T09:10:45.484Z,1720
2017-02-16T09:11:26.017Z,1444
2017-02-16T09:12:06.551Z,1272
2017-02-16T09:12:47.081Z,1204
2017-02-16T09:13:27.625Z,1112
2017-02-16T09:14:08.155Z,1060
2017-02-16T09:14:48.696Z,1096
2017-02-16T09:15:29.226Z,1264
2017-02-16T09:16:09.861Z,1548
2017-02-16T09:16:50.395Z,1748
2017-02-16T09:17:30.929Z,1888
2017-02-16T09:18:11.461Z,1964
2017-02-16T09:18:51.991Z,1940
2017-02-16T09:19:32.526Z,1844
2017-02-16T09:20:13.057Z,1864
2017-02-16T09:20:53.595Z,1908
2017-02-16T09:21:34.134Z,2052
2017-02-16T09:22:14.665Z,2300
2017-02-16T09:22:55.201Z,2560
2017-02-16T09:23:35.741Z,2936
2017-02-16T09:24:16.272Z,3540
2017-02-16T09:24:56.804Z,4004
2017-02-16T09:25:37.338Z,4704
2017-02-16T09:26:17.868Z,10292
2017-02-16T09:26:58.402Z,4580
2017-02-16T09:27:38.934Z,5064
2017-02-16T09:28:19.475Z,4244
2017-02-16T09:29:00.008Z,3512
2017-02-16T09:29:40.543Z,3568
2017-02-16T09:30:21.071Z,3484
2017-02-16T09:31:01.608Z,4268
2017-02-16T09:31:42.143Z,4624
2017-02-16T09:32:22.678Z,4340
2017-02-16T09:33:03.212Z,4280
2017-02-16T09:33:43.744Z,4368
2017-02-16T09:34:24.274Z,4208
2017-02-16T09:35:04.810Z,3776
2017-02-16T09:35:45.346Z,4084
2017-02-16T09:36:25.880Z,4660
2017-02-16T09:37:06.412Z,5060
2017-02-16T09:37:46.946Z,5444
2017-02-16T09:38:27.479Z,5088
2017-02-16T09:39:08.013Z,5076
2017-02-16T09:39:48.544Z,4708
2017-02-16T09:40:29.082Z,4040
2017-02-16T09:41:09.617Z,3568
2017-02-16T09:41:50.150Z,2896
2017-02-16T09:42:30.680Z,2656
2017-02-16T09:43:11.210Z,2340
2017-02-16T09:43:51.742Z,2320
2017-02-16T09:44:32.277Z,2448
2017-02-16T09:45:12.804Z,2704
2017-02-16T09:45:53.341Z,2840
2017-02-16T09:46:33.874Z,3052
2017-02-16T09:47:14.409Z,3140
2017-02-16T09:47:54.945Z,3328
2017-02-16T09:48:35.480Z,4176
2017-02-16T09:49:16.016Z,4856
2017-02-16T09:49:56.555Z,5812
2017-02-16T09:50:37.092Z,6040
2017-02-16T09:51:17.625Z,7720
2017-02-16T09:51:58.157Z,11320
2017-02-16T09:52:38.690Z,16192
2017-02-16T09:53:19.218Z,17728
2017-02-16T09:53:59.756Z,14000
2017-02-16T09:54:40.293Z,15712
2017-02-16T09:55:20.827Z,25248
2017-02-16T09:56:01.360Z,24576
2017-02-16T09:56:41.893Z,23936
2017-02-16T09:57:22.431Z,22912
2017-02-16T09:58:02.967Z,25024
2017-02-16T09:58:43.503Z,15296
2017-02-16T09:59:24.040Z,10584
2017-02-16T10:00:04.576Z,7208
2017-02-16T10:00:45.160Z,7040
2017-02-16T10:01:25.742Z,17728
2017-02-16T10:02:06.277Z,7592
2017-02-16T10:02:46.816Z,9664
2017-02-16T10:03:27.344Z,7912
2017-02-16T10:04:07.883Z,7464
2017-02-16T10:04:48.418Z,6964
2017-02-16T10:05:28.953Z,6568
2017-02-16T10:06:09.494Z,6696
2017-02-16T10:06:50.039Z,5132
2017-02-16T10:07:30.580Z,4992
2017-02-16T10:08:11.120Z,4740
2017-02-16T10:08:51.657Z,4504
2017-02-16T10:09:32.188Z,4696
2017-02-16T10:10:12.721Z,5100
2017-02-16T10:10:53.258Z,6396
2017-02-16T10:11:33.796Z,6996
2017-02-16T10:12:14.335Z,18144
2017-02-16T10:12:54.874Z,13064